Time;durP1;ratioP1;P1;durP2;ratioP2;P2;SDS_P1;SDS_P2;PMS_P1;PMS_P2;Temp;Humidity;BMP_temperature;BMP_pressure;BME280_temperature;BME280_humidity;BME280_pressure;Samples;Min_cycle;Max_cycle;Signal;HPM_P1;HPM_P2
2023/09/10 00:01:43;;;;;;;32.90;24.50;;;;;;;17.38;94.84;100787.55;217778;1289;140846;-87
2023/09/10 00:06:43;;;;;;;33.30;22.40;;;;;;;17.38;95.21;100785.55;218314;1288;138110;-87
2023/09/10 00:11:44;;;;;;;32.20;24.30;;;;;;;17.36;95.42;100780.55;217819;1288;142126;-86
2023/09/10 00:16:45;;;;;;;31.40;23.80;;;;;;;17.34;95.20;100779.94;218312;1288;139278;-87
2023/09/10 00:21:45;;;;;;;35.90;23.90;;;;;;;17.32;94.99;100777.65;217782;1288;142278;-87
2023/09/10 00:26:46;;;;;;;29.50;23.10;;;;;;;17.30;95.39;100778.63;218265;1288;96390;-87
2023/09/10 00:31:46;;;;;;;33.20;24.50;;;;;;;17.27;95.68;100778.90;217815;1288;141820;-86
2023/09/10 00:36:47;;;;;;;39.20;25.40;;;;;;;17.26;95.94;100774.54;218284;1288;139354;-87
2023/09/10 00:41:47;;;;;;;32.40;23.00;;;;;;;17.23;95.97;100776.88;217537;1289;142557;-87
2023/09/10 00:46:49;;;;;;;33.50;23.40;;;;;;;17.21;96.23;100775.77;218239;1289;139992;-87
2023/09/10 00:51:50;;;;;;;31.40;23.50;;;;;;;17.20;96.96;100773.18;217707;1288;142181;-87
2023/09/10 00:56:52;;;;;;;33.40;25.20;;;;;;;17.19;96.66;100769.86;218262;1288;96646;-87
2023/09/10 01:01:52;;;;;;;35.40;24.40;;;;;;;17.17;97.06;100766.85;217650;1290;141205;-86
2023/09/10 01:06:53;;;;;;;36.90;23.00;;;;;;;17.16;97.46;100763.37;218451;1290;139548;-86
2023/09/10 01:12:14;;;;;;;33.40;24.00;;;;;;;17.15;97.54;100765.20;217541;1290;141894;-87
2023/09/10 01:17:23;;;;;;;29.90;23.40;;;;;;;17.13;97.24;100764.90;218266;1291;139207;-87
2023/09/10 01:22:39;;;;;;;29.50;23.50;;;;;;;17.10;97.77;100767.06;217773;1291;141478;-87
2023/09/10 01:27:40;;;;;;;36.30;24.70;;;;;;;17.09;97.89;100766.05;218160;1292;139417;-87
2023/09/10 01:32:46;;;;;;;32.80;23.50;;;;;;;17.06;97.79;100762.98;217911;1288;141442;-87
2023/09/10 01:38:02;;;;;;;;;;;;;;;17.04;97.82;100762.45;218309;1288;139129;-87
2023/09/10 01:43:05;;;;;;;33.50;24.40;;;;;;;16.98;97.79;100765.21;217735;1288;127862;-85
2023/09/10 01:48:06;;;;;;;36.80;24.60;;;;;;;16.96;98.01;100760.77;218227;1289;139316;-86
2023/09/10 01:53:06;;;;;;;30.50;22.00;;;;;;;16.94;98.66;100755.88;217801;1288;142078;-87
2023/09/10 01:58:07;;;;;;;34.50;25.50;;;;;;;16.93;98.46;100755.48;218175;1288;139433;-87
2023/09/10 02:03:07;;;;;;;31.60;23.10;;;;;;;16.91;98.47;100755.90;217839;1288;140901;-87
2023/09/10 02:08:08;;;;;;;33.70;24.00;;;;;;;16.89;98.46;100754.35;218244;1289;139346;-86
2023/09/10 02:13:08;;;;;;;35.50;23.70;;;;;;;16.87;98.60;100757.27;217791;1290;140832;-86
2023/09/10 02:18:09;;;;;;;32.80;24.80;;;;;;;16.85;98.96;100752.70;218295;1288;139828;-86
2023/09/10 02:23:09;;;;;;;35.00;25.50;;;;;;;16.84;99.42;100743.83;217767;1291;141757;-87
2023/09/10 02:28:10;;;;;;;37.80;26.90;;;;;;;16.82;99.40;100741.93;218124;1290;139581;-86
2023/09/10 02:33:11;;;;;;;34.20;25.10;;;;;;;16.78;99.77;100742.77;217811;1288;141666;-86
2023/09/10 02:38:11;;;;;;;32.20;25.90;;;;;;;16.75;99.82;100743.50;218320;1288;139007;-86
2023/09/10 02:43:12;;;;;;;30.80;23.90;;;;;;;16.73;99.84;100743.67;217803;1288;141556;-86
2023/09/10 02:48:13;;;;;;;38.60;25.30;;;;;;;16.71;99.86;100744.96;218198;1291;139179;-87
2023/09/10 02:53:13;;;;;;;32.70;25.20;;;;;;;16.69;99.85;100747.36;217917;1288;141619;-87
2023/09/10 02:58:14;;;;;;;35.40;25.50;;;;;;;16.66;99.95;100746.60;218354;1289;139283;-86
2023/09/10 03:03:14;;;;;;;34.70;24.80;;;;;;;16.63;99.96;100747.02;217882;1288;142296;-86
2023/09/10 03:08:14;;;;;;;33.30;25.90;;;;;;;16.60;99.94;100747.84;218264;1288;141619;-86
2023/09/10 03:13:15;;;;;;;33.10;24.90;;;;;;;16.57;100.00;100742.23;217730;1288;141304;-86
2023/09/10 03:18:15;;;;;;;34.50;25.90;;;;;;;16.54;100.00;100742.89;218326;1288;139991;-86
2023/09/10 03:23:18;;;;;;;37.00;27.30;;;;;;;16.52;100.00;100742.75;217822;1289;142069;-86
2023/09/10 03:28:18;;;;;;;41.50;28.30;;;;;;;16.50;100.00;100740.86;218333;1288;139800;-86
2023/09/10 03:33:19;;;;;;;36.50;27.70;;;;;;;16.47;100.00;100741.85;217821;1288;143087;-86
2023/09/10 03:38:20;;;;;;;38.10;28.00;;;;;;;16.44;100.00;100731.79;218228;1291;140454;-86
2023/09/10 03:43:20;;;;;;;38.80;26.40;;;;;;;16.40;100.00;100729.19;217710;1288;143328;-86
2023/09/10 03:48:21;;;;;;;35.50;27.60;;;;;;;16.37;100.00;100726.57;218290;1291;139434;-86
2023/09/10 03:53:21;;;;;;;38.60;28.40;;;;;;;16.35;100.00;100722.92;217754;1288;142420;-86
2023/09/10 03:58:22;;;;;;;34.80;25.20;;;;;;;16.33;100.00;100724.44;218171;1294;139511;-87
2023/09/10 04:03:24;;;;;;;34.30;26.40;;;;;;;16.30;100.00;100717.88;217885;1292;142794;-87
2023/09/10 04:08:24;;;;;;;41.50;29.00;;;;;;;16.29;100.00;100710.75;218110;1289;139038;-87
2023/09/10 04:13:25;;;;;;;40.20;29.00;;;;;;;16.25;100.00;100708.71;217778;1289;142299;-87
2023/09/10 04:18:26;;;;;;;36.00;27.30;;;;;;;16.23;100.00;100712.14;218284;1288;139550;-86
2023/09/10 04:23:26;;;;;;;40.30;27.60;;;;;;;16.21;100.00;100709.63;217782;1288;142614;-87
2023/09/10 04:28:26;;;;;;;40.10;27.40;;;;;;;16.18;100.00;100711.95;218343;1288;139606;-87
2023/09/10 04:33:27;;;;;;;39.50;26.00;;;;;;;16.16;100.00;100712.20;217691;1293;141738;-87
2023/09/10 04:38:28;;;;;;;36.50;27.00;;;;;;;16.14;100.00;100709.98;218224;1288;139409;-86
2023/09/10 04:43:28;;;;;;;37.70;28.00;;;;;;;16.13;100.00;100710.07;217884;1288;141023;-86
2023/09/10 04:48:29;;;;;;;34.70;27.10;;;;;;;16.13;100.00;100709.30;218328;1288;139782;-87
2023/09/10 04:53:30;;;;;;;41.70;27.50;;;;;;;16.13;100.00;100712.52;217628;1292;143227;-86
2023/09/10 04:58:31;;;;;;;44.60;28.30;;;;;;;16.14;100.00;100715.61;218258;1289;139569;-86
2023/09/10 05:03:32;;;;;;;36.80;28.60;;;;;;;16.15;100.00;100720.62;217876;1288;140821;-86
2023/09/10 05:08:32;;;;;;;40.70;28.00;;;;;;;16.17;100.00;100725.84;218309;1291;139639;-85
2023/09/10 05:13:33;;;;;;;38.10;28.30;;;;;;;16.19;100.00;100725.19;217782;1288;141662;-85
2023/09/10 05:18:34;;;;;;;36.30;26.60;;;;;;;16.22;100.00;100730.55;218259;1288;139834;-85
2023/09/10 05:23:34;;;;;;;36.50;28.10;;;;;;;16.26;100.00;100738.47;217690;1292;141729;-86
2023/09/10 05:28:35;;;;;;;39.70;29.10;;;;;;;16.30;100.00;100739.33;218129;1289;139698;-86
2023/09/10 05:33:35;;;;;;;41.80;29.80;;;;;;;16.35;100.00;100741.65;217827;1288;142917;-85
2023/09/10 05:38:36;;;;;;;35.20;28.30;;;;;;;16.42;100.00;100742.35;218357;1289;96478;-86
2023/09/10 05:43:36;;;;;;;39.90;29.30;;;;;;;16.49;100.00;100747.61;217662;1288;142076;-86
2023/09/10 05:48:36;;;;;;;38.60;29.80;;;;;;;16.58;100.00;100748.34;218309;1289;140073;-86
2023/09/10 05:53:40;;;;;;;40.70;30.20;;;;;;;16.67;100.00;100752.55;217611;1288;141377;-86
2023/09/10 05:58:42;;;;;;;43.40;32.70;;;;;;;16.80;100.00;100754.73;218221;1290;139411;-86
2023/09/10 06:03:42;;;;;;;39.50;30.20;;;;;;;16.91;100.00;100753.69;217629;1289;142549;-86
2023/09/10 06:08:42;;;;;;;38.00;29.90;;;;;;;17.05;100.00;100750.28;218402;1289;96030;-86
2023/09/10 06:13:43;;;;;;;43.20;31.20;;;;;;;17.29;100.00;100749.80;217745;1288;140798;-86
2023/09/10 06:18:43;;;;;;;39.80;30.80;;;;;;;17.51;100.00;100750.75;218334;1289;139546;-87
2023/09/10 06:23:44;;;;;;;39.40;31.00;;;;;;;17.65;100.00;100744.79;217771;1289;142587;-86
2023/09/10 06:28:44;;;;;;;39.20;30.10;;;;;;;17.77;100.00;100743.90;218202;1289;140009;-85
2023/09/10 06:33:45;;;;;;;41.40;29.40;;;;;;;17.90;100.00;100742.93;217748;1289;141278;-86
2023/09/10 06:38:47;;;;;;;40.00;29.70;;;;;;;18.02;100.00;100739.59;218430;1292;96189;-86
2023/09/10 06:43:48;;;;;;;41.50;29.30;;;;;;;18.15;100.00;100741.46;217725;1290;141172;-85
2023/09/10 06:48:48;;;;;;;42.90;28.70;;;;;;;18.29;100.00;100747.14;218254;1289;139338;-87
2023/09/10 06:53:49;;;;;;;33.50;25.90;;;;;;;18.44;100.00;100747.58;217655;1289;141456;-86
2023/09/10 06:58:49;;;;;;;36.00;28.20;;;;;;;18.62;100.00;100754.52;218280;1288;139778;-86
2023/09/10 07:03:51;;;;;;;34.10;26.30;;;;;;;18.75;100.00;100750.65;217733;1290;143462;-85
2023/09/10 07:08:52;;;;;;;37.10;27.70;;;;;;;18.88;100.00;100749.86;218263;1289;111606;-85
2023/09/10 07:13:52;;;;;;;36.60;25.60;;;;;;;19.05;100.00;100753.45;217822;1288;141547;-86
2023/09/10 07:18:53;;;;;;;34.20;26.20;;;;;;;19.20;100.00;100756.93;218330;1289;139474;-86
2023/09/10 07:23:53;;;;;;;31.40;24.40;;;;;;;19.45;100.00;100758.84;217660;1289;141083;-86
2023/09/10 07:28:53;;;;;;;30.40;22.90;;;;;;;19.59;100.00;100755.70;218218;1289;142451;-86
2023/09/10 07:33:54;;;;;;;37.10;23.80;;;;;;;19.75;100.00;100756.55;217635;1290;141882;-85
2023/09/10 07:38:55;;;;;;;34.20;23.20;;;;;;;19.94;100.00;100757.42;218274;1289;96302;-87
2023/09/10 07:43:55;;;;;;;33.80;22.20;;;;;;;20.17;100.00;100760.05;217763;1288;141062;-86
2023/09/10 07:48:56;;;;;;;29.90;23.30;;;;;;;20.42;100.00;100750.84;218246;1288;139209;-87
2023/09/10 07:53:56;;;;;;;29.20;21.50;;;;;;;20.65;99.54;100754.20;217755;1288;141874;-86
2023/09/10 07:58:58;;;;;;;26.00;20.30;;;;;;;20.91;98.04;100755.60;218255;1289;139369;-86
2023/09/10 08:03:58;;;;;;;26.30;19.10;;;;;;;21.14;97.65;100757.26;217580;1291;143052;-85
2023/09/10 08:08:58;;;;;;;23.90;18.10;;;;;;;21.38;96.83;100755.08;218365;1288;95981;-87
2023/09/10 08:13:59;;;;;;;21.90;16.80;;;;;;;21.63;95.99;100756.02;217818;1289;140712;-87
2023/09/10 08:18:59;;;;;;;24.70;17.70;;;;;;;21.89;95.80;100746.98;218258;1288;139381;-87
2023/09/10 08:24:00;;;;;;;22.90;15.30;;;;;;;22.14;94.31;100745.23;217813;1288;142519;-88
2023/09/10 08:29:00;;;;;;;22.20;15.00;;;;;;;22.44;92.54;100747.50;218305;1288;139414;-87
2023/09/10 08:34:00;;;;;;;19.10;14.30;;;;;;;22.77;92.43;100746.73;217736;1289;140591;-87
2023/09/10 08:39:01;;;;;;;20.90;14.60;;;;;;;23.12;91.74;100741.69;218357;1288;96074;-86
2023/09/10 08:44:03;;;;;;;21.00;14.80;;;;;;;23.49;90.28;100740.76;217800;1289;142123;-87
2023/09/10 08:49:04;;;;;;;18.70;13.40;;;;;;;23.92;88.57;100739.21;218314;1288;139139;-87
2023/09/10 08:54:07;;;;;;;18.90;11.80;;;;;;;24.47;88.17;100737.27;217892;1289;140187;-86
2023/09/10 08:59:10;;;;;;;18.00;12.80;;;;;;;25.12;83.68;100738.10;217739;1288;142464;-87
2023/09/10 09:04:12;;;;;;;17.40;11.40;;;;;;;25.91;83.48;100737.35;218240;1288;139198;-87
2023/09/10 09:09:16;;;;;;;15.40;11.00;;;;;;;26.84;78.15;100724.73;217929;1289;141916;-87
2023/09/10 09:14:17;;;;;;;17.40;10.20;;;;;;;27.72;74.45;100724.98;218239;1288;139029;-87
2023/09/10 09:19:21;;;;;;;15.30;9.80;;;;;;;28.68;72.16;100726.80;217776;1288;142763;-87
2023/09/10 09:24:22;;;;;;;14.90;10.10;;;;;;;29.57;68.38;100731.66;218104;1290;138869;-87
2023/09/10 09:29:23;;;;;;;13.30;10.70;;;;;;;30.30;64.99;100726.00;217770;1288;140586;-86
2023/09/10 09:34:23;;;;;;;15.20;9.50;;;;;;;30.91;63.32;100722.11;218287;1288;139203;-86
2023/09/10 09:39:25;;;;;;;16.40;9.60;;;;;;;31.72;60.91;100714.44;217784;1290;140419;-87
2023/09/10 09:44:26;;;;;;;13.50;9.30;;;;;;;32.37;58.64;100714.11;218316;1290;138051;-87
2023/09/10 09:49:27;;;;;;;13.40;9.10;;;;;;;33.00;55.90;100714.33;217709;1290;140500;-89
2023/09/10 09:54:28;;;;;;;12.60;9.30;;;;;;;33.56;54.70;100710.31;218217;1288;138842;-88
2023/09/10 09:59:28;;;;;;;14.60;9.90;;;;;;;33.98;50.88;100713.27;217740;1289;141455;-88
2023/09/10 10:04:32;;;;;;;15.70;9.70;;;;;;;34.08;49.43;100711.58;218373;1288;138368;-85
2023/09/10 10:09:35;;;;;;;14.10;8.80;;;;;;;34.57;49.52;100709.44;217887;1288;141011;-87
2023/09/10 10:14:36;;;;;;;14.10;9.70;;;;;;;35.10;47.80;100707.38;218470;1288;96237;-87
2023/09/10 10:19:37;;;;;;;15.70;9.20;;;;;;;35.49;46.97;100698.33;217774;1288;140125;-87
2023/09/10 10:24:39;;;;;;;11.90;9.10;;;;;;;35.72;45.05;100695.55;218116;1288;138530;-87
2023/09/10 10:29:40;;;;;;;13.80;9.20;;;;;;;35.88;44.83;100690.83;217814;1288;141008;-88
2023/09/10 10:34:48;;;;;;;11.80;8.90;;;;;;;36.09;44.67;100684.16;218148;1288;139376;-87
2023/09/10 10:40:08;;;;;;;15.80;9.30;;;;;;;36.24;43.28;100677.60;217683;1290;141893;-87
2023/09/10 10:45:10;;;;;;;13.00;9.50;;;;;;;36.36;42.12;100675.98;218293;1290;97047;-87
2023/09/10 10:50:15;;;;;;;11.10;8.50;;;;;;;36.18;42.21;100672.89;217715;1288;140762;-86
2023/09/10 10:55:17;;;;;;;12.70;8.50;;;;;;;36.32;40.47;100670.27;218081;1288;139347;-88
2023/09/10 11:00:19;;;;;;;15.70;8.70;;;;;;;36.07;39.88;100672.21;217507;1288;310627;-86
2023/09/10 11:05:20;;;;;;;13.00;8.90;;;;;;;36.11;41.56;100675.16;218314;1288;138621;-87
2023/09/10 11:10:29;;;;;;;14.90;9.40;;;;;;;36.27;41.67;100675.41;217696;1288;139589;-88
2023/09/10 11:15:30;;;;;;;12.20;9.40;;;;;;;36.38;40.67;100668.80;218209;1289;98931;-87
2023/09/10 11:20:48;;;;;;;11.00;9.00;;;;;;;36.13;40.11;100667.26;217608;1289;140340;-87
2023/09/10 11:25:50;;;;;;;11.00;8.50;;;;;;;36.21;40.72;100661.88;218186;1288;138152;-88
2023/09/10 11:30:51;;;;;;;15.10;9.60;;;;;;;36.13;40.65;100659.85;217472;1289;140699;-87
2023/09/10 11:35:53;;;;;;;13.00;9.00;;;;;;;36.17;40.66;100660.48;218293;1288;138511;-88
2023/09/10 11:40:53;;;;;;;14.40;8.60;;;;;;;35.99;41.85;100653.77;217505;1290;143105;-87
2023/09/10 11:45:55;;;;;;;12.50;7.20;;;;;;;35.99;40.52;100652.23;218012;1289;138386;-88
2023/09/10 11:50:56;;;;;;;10.90;7.30;;;;;;;35.76;39.68;100651.64;217674;1288;142144;-88
2023/09/10 11:55:57;;;;;;;12.70;7.60;;;;;;;35.66;40.43;100648.61;218308;1288;139497;-86
2023/09/10 12:00:58;;;;;;;11.80;7.00;;;;;;;35.49;38.50;100650.34;217681;1288;141110;-86
2023/09/10 12:05:59;;;;;;;10.90;7.40;;;;;;;35.28;38.02;100648.56;218265;1288;138265;-88
2023/09/10 12:11:03;;;;;;;12.10;7.00;;;;;;;35.07;39.66;100645.10;217715;1289;140755;-87
2023/09/10 12:16:04;;;;;;;12.90;7.20;;;;;;;34.82;40.42;100641.75;218313;1289;138979;-88
2023/09/10 12:21:05;;;;;;;10.50;7.20;;;;;;;34.68;40.76;100633.95;217776;1289;139840;-87
2023/09/10 12:26:07;;;;;;;9.30;6.70;;;;;;;34.70;40.11;100637.40;218109;1288;139040;-87
2023/09/10 12:31:07;;;;;;;11.80;7.00;;;;;;;34.65;40.98;100635.73;217749;1288;139630;-86
2023/09/10 12:36:08;;;;;;;11.80;8.30;;;;;;;34.49;40.31;100635.26;218289;1288;138691;-87
2023/09/10 12:41:09;;;;;;;10.10;7.30;;;;;;;34.20;40.96;100630.98;217630;1288;140469;-88
2023/09/10 12:46:10;;;;;;;12.90;7.50;;;;;;;34.19;42.71;100627.05;218294;1288;138367;-88
2023/09/10 12:51:10;;;;;;;10.60;7.10;;;;;;;34.14;42.44;100619.25;217832;1288;142569;-87
2023/09/10 12:56:11;;;;;;;10.90;8.10;;;;;;;33.95;40.74;100614.55;218194;1291;138371;-87
2023/09/10 13:01:13;;;;;;;14.20;7.50;;;;;;;33.71;40.14;100611.86;217657;1288;140388;-87
2023/09/10 13:06:14;;;;;;;10.60;7.10;;;;;;;33.51;40.82;100609.12;218083;1291;140428;-86
2023/09/10 13:11:14;;;;;;;10.50;7.30;;;;;;;33.42;40.38;100604.98;217751;1288;142916;-86
2023/09/10 13:16:15;;;;;;;9.80;7.10;;;;;;;33.21;41.99;100602.61;218333;1288;138444;-86
2023/09/10 13:21:18;;;;;;;9.50;6.60;;;;;;;33.02;43.05;100601.80;217894;1289;140254;-86
2023/09/10 13:26:19;;;;;;;10.00;7.40;;;;;;;32.96;42.88;100600.23;218339;1288;138631;-86
2023/09/10 13:31:20;;;;;;;11.30;7.10;;;;;;;32.90;41.47;100603.48;217731;1288;140433;-87
2023/09/10 13:36:20;;;;;;;14.70;7.50;;;;;;;32.66;44.17;100600.05;218268;1290;138516;-87
2023/09/10 13:41:21;;;;;;;13.40;8.00;;;;;;;32.56;45.22;100601.38;217899;1288;141847;-85
2023/09/10 13:46:22;;;;;;;11.60;7.00;;;;;;;32.54;44.24;100602.23;218308;1289;138319;-86
2023/09/10 13:51:22;;;;;;;12.30;7.40;;;;;;;32.44;43.01;100603.18;217787;1290;141741;-86
2023/09/10 13:56:24;;;;;;;12.00;6.90;;;;;;;32.34;44.15;100604.62;218330;1288;138576;-86
2023/09/10 14:01:25;;;;;;;16.90;7.40;;;;;;;32.22;44.58;100608.46;217785;1288;142324;-87
2023/09/10 14:06:25;;;;;;;9.60;6.90;;;;;;;32.04;43.84;100601.03;218232;1288;138818;-87
2023/09/10 14:11:26;;;;;;;11.10;7.30;;;;;;;31.93;45.80;100602.40;217542;1293;141173;-87
2023/09/10 14:16:27;;;;;;;9.90;7.00;;;;;;;31.86;43.04;100595.06;218157;1289;138636;-87
2023/09/10 14:21:28;;;;;;;13.60;7.00;;;;;;;31.76;43.27;100596.58;217716;1288;140986;-87
2023/09/10 14:26:29;;;;;;;11.30;7.00;;;;;;;31.59;44.06;100594.79;218123;1288;138820;-87
2023/09/10 14:31:29;;;;;;;11.00;7.30;;;;;;;31.40;44.37;100589.09;217551;1289;141319;-88
2023/09/10 14:36:30;;;;;;;13.10;7.60;;;;;;;31.22;45.53;100586.17;217851;1289;139739;-90
2023/09/10 14:41:30;;;;;;;10.60;7.10;;;;;;;31.01;45.46;100586.89;217772;1292;140565;-90
2023/09/10 14:46:31;;;;;;;12.20;7.00;;;;;;;30.70;46.92;100585.82;218334;1288;138258;-89
2023/09/10 14:51:32;;;;;;;11.20;6.60;;;;;;;30.62;47.21;100583.44;217630;1288;142283;-87
2023/09/10 14:56:32;;;;;;;12.30;7.20;;;;;;;30.47;47.30;100585.39;218397;1288;139400;-87
2023/09/10 15:01:33;;;;;;;10.70;7.20;;;;;;;30.10;48.20;100578.63;217625;1291;140265;-86
2023/09/10 15:06:33;;;;;;;10.90;7.40;;;;;;;29.95;48.59;100572.80;218300;1289;138817;-87
2023/09/10 15:11:34;;;;;;;10.30;7.40;;;;;;;29.83;47.78;100572.30;217572;1288;141253;-86
2023/09/10 15:16:34;;;;;;;12.70;7.40;;;;;;;29.74;47.93;100571.66;218062;1291;139440;-87
2023/09/10 15:21:35;;;;;;;11.40;7.60;;;;;;;29.61;47.76;100567.09;217825;1288;142122;-86
2023/09/10 15:26:35;;;;;;;10.80;7.40;;;;;;;29.46;47.45;100561.48;218480;1288;96188;-85
2023/09/10 15:31:37;;;;;;;10.70;6.90;;;;;;;29.36;47.07;100557.88;217837;1288;140528;-86
2023/09/10 15:36:39;;;;;;;10.20;7.20;;;;;;;29.21;48.09;100556.30;218300;1288;139353;-87
2023/09/10 15:41:42;;;;;;;11.20;7.30;;;;;;;29.06;48.97;100551.88;217610;1288;140575;-87
2023/09/10 15:46:43;;;;;;;11.70;6.90;;;;;;;28.81;48.85;100551.84;218296;1288;138779;-87
2023/09/10 15:51:44;;;;;;;11.30;7.90;;;;;;;28.56;50.96;100553.78;217707;1288;140781;-88
2023/09/10 15:56:44;;;;;;;13.30;8.20;;;;;;;28.43;51.35;100550.05;218359;1288;102069;-87
2023/09/10 16:01:45;;;;;;;13.90;8.10;;;;;;;28.29;50.93;100545.69;217594;1290;141079;-87
2023/09/10 16:06:47;;;;;;;10.60;6.90;;;;;;;28.10;51.76;100545.64;218293;1289;139419;-86
2023/09/10 16:11:48;;;;;;;12.60;7.70;;;;;;;27.91;53.05;100543.67;217669;1288;140432;-86
2023/09/10 16:16:49;;;;;;;11.20;7.10;;;;;;;27.76;53.98;100540.52;218123;1290;138343;-87
2023/09/10 16:21:49;;;;;;;13.00;8.00;;;;;;;27.58;54.98;100542.68;217651;1288;140346;-86
2023/09/10 16:26:50;;;;;;;9.60;6.50;;;;;;;27.39;55.68;100544.11;218331;1288;96789;-86
2023/09/10 16:31:51;;;;;;;9.60;6.30;;;;;;;27.25;56.90;100539.92;217593;1288;140302;-86
2023/09/10 16:36:51;;;;;;;14.40;7.60;;;;;;;27.13;58.17;100541.14;218319;1288;138713;-86
2023/09/10 16:41:52;;;;;;;12.20;7.40;;;;;;;27.00;59.03;100542.38;217740;1289;140326;-86
2023/09/10 16:46:52;;;;;;;14.60;7.40;;;;;;;26.83;59.85;100545.00;218263;1288;138339;-86
2023/09/10 16:51:54;;;;;;;11.70;7.50;;;;;;;26.66;61.27;100541.39;217815;1288;140273;-86
2023/09/10 16:56:57;;;;;;;12.90;8.20;;;;;;;26.54;62.05;100544.02;218321;1288;106166;-86
2023/09/10 17:01:57;;;;;;;12.40;7.60;;;;;;;26.33;63.08;100540.59;217746;1288;141533;-86
2023/09/10 17:06:58;;;;;;;12.50;8.30;;;;;;;26.04;64.89;100541.74;218183;1291;138214;-86
2023/09/10 17:11:59;;;;;;;12.50;8.50;;;;;;;25.84;66.23;100537.29;217776;1290;142546;-86
2023/09/10 17:17:02;;;;;;;13.20;8.50;;;;;;;25.61;67.07;100539.66;218262;1288;138384;-85
2023/09/10 17:22:03;;;;;;;13.20;8.40;;;;;;;25.36;68.37;100547.40;217707;1288;140686;-86
2023/09/10 17:27:04;;;;;;;14.10;8.30;;;;;;;25.16;68.82;100554.19;218401;1288;96048;-85
2023/09/10 17:32:05;;;;;;;14.90;8.80;;;;;;;25.08;68.74;100557.51;217397;1288;141041;-86
2023/09/10 17:37:05;;;;;;;11.90;8.10;;;;;;;24.93;69.49;100558.74;218739;1291;138985;-86
2023/09/10 17:42:06;;;;;;;17.70;9.30;;;;;;;24.69;70.77;100556.10;217716;1288;140328;-86
2023/09/10 17:47:07;;;;;;;14.60;8.60;;;;;;;24.42;71.87;100554.64;218257;1288;138689;-85
2023/09/10 17:52:09;;;;;;;11.90;8.40;;;;;;;24.17;72.58;100561.20;217686;1288;140578;-88
2023/09/10 17:57:09;;;;;;;14.90;10.00;;;;;;;24.06;72.89;100562.46;218343;1288;112099;-88
2023/09/10 18:02:10;;;;;;;18.70;9.70;;;;;;;23.84;73.33;100559.91;217716;1288;142780;-88
2023/09/10 18:07:11;;;;;;;16.20;9.70;;;;;;;23.55;74.60;100559.48;218301;1288;138452;-87
2023/09/10 18:12:11;;;;;;;15.10;8.90;;;;;;;23.31;75.70;100557.70;217737;1291;141666;-87
2023/09/10 18:17:12;;;;;;;12.50;8.60;;;;;;;23.16;75.92;100558.52;218114;1288;139319;-87
2023/09/10 18:22:16;;;;;;;16.80;9.70;;;;;;;23.04;76.08;100559.27;217872;1288;142131;-88
2023/09/10 18:27:16;;;;;;;14.00;9.00;;;;;;;22.82;77.02;100560.83;218276;1290;111238;-88
2023/09/10 18:32:17;;;;;;;14.90;9.60;;;;;;;22.66;77.68;100563.84;217823;1288;141074;-87
2023/09/10 18:37:18;;;;;;;15.50;10.10;;;;;;;22.52;78.65;100565.77;218461;1288;139012;-88
2023/09/10 18:42:19;;;;;;;16.30;11.10;;;;;;;22.34;79.62;100566.86;217849;1289;142019;-88
2023/09/10 18:47:19;;;;;;;15.60;9.90;;;;;;;22.15;80.31;100571.06;218288;1288;139785;-88
2023/09/10 18:52:19;;;;;;;14.30;10.30;;;;;;;21.99;81.20;100570.42;217812;1288;141760;-88
2023/09/10 18:57:20;;;;;;;17.00;9.90;;;;;;;21.82;82.26;100571.76;218317;1290;96057;-87
2023/09/10 19:02:20;;;;;;;17.40;12.50;;;;;;;21.66;82.99;100570.27;217821;1289;140711;-88
2023/09/10 19:07:20;;;;;;;19.10;11.30;;;;;;;21.51;83.72;100564.97;218430;1289;139231;-87
2023/09/10 19:12:21;;;;;;;17.70;10.30;;;;;;;21.42;83.78;100563.89;217753;1288;141819;-87
2023/09/10 19:17:23;;;;;;;13.50;9.50;;;;;;;21.34;83.91;100570.06;218351;1288;139813;-88
2023/09/10 19:22:24;;;;;;;15.30;11.10;;;;;;;21.28;84.24;100569.15;217833;1288;140746;-88
2023/09/10 19:27:24;;;;;;;16.30;9.90;;;;;;;21.20;84.78;100568.58;218451;1289;96032;-88
2023/09/10 19:32:25;;;;;;;14.90;11.30;;;;;;;21.08;84.91;100564.64;217672;1288;140585;-89
2023/09/10 19:37:25;;;;;;;18.10;11.00;;;;;;;20.97;85.93;100573.17;218359;1289;139729;-88
2023/09/10 19:42:28;;;;;;;16.50;10.80;;;;;;;20.80;86.56;100574.12;217479;1291;141107;-88
2023/09/10 19:47:29;;;;;;;17.60;11.40;;;;;;;20.71;86.89;100571.41;218243;1293;139241;-88
2023/09/10 19:52:29;;;;;;;19.80;10.90;;;;;;;20.60;87.34;100572.63;217825;1288;142720;-89
2023/09/10 19:57:30;;;;;;;16.30;10.80;;;;;;;20.54;87.41;100571.17;218355;1291;96183;-89
2023/09/10 20:02:31;;;;;;;17.30;10.30;;;;;;;20.48;87.53;100570.71;217595;1288;140462;-89
2023/09/10 20:07:31;;;;;;;16.70;12.10;;;;;;;20.41;87.74;100563.14;218136;1291;139593;-89
2023/09/10 20:12:32;;;;;;;18.20;11.50;;;;;;;20.31;88.58;100562.94;217702;1288;143225;-88
2023/09/10 20:17:32;;;;;;;13.90;10.60;;;;;;;20.18;89.31;100561.84;218147;1288;139794;-88
2023/09/10 20:22:33;;;;;;;17.00;11.70;;;;;;;20.11;89.23;100565.92;217662;1288;142716;-88
2023/09/10 20:27:33;;;;;;;17.90;11.90;;;;;;;20.04;90.06;100564.73;218417;1288;95990;-88
2023/09/10 20:32:35;;;;;;;17.50;12.40;;;;;;;19.93;90.55;100565.25;217665;1292;141176;-89
2023/09/10 20:37:35;;;;;;;17.90;11.20;;;;;;;19.85;90.99;100565.84;218297;1293;140721;-89
2023/09/10 20:42:36;;;;;;;17.90;12.30;;;;;;;19.75;90.96;100571.60;217696;1288;141534;-89
2023/09/10 20:47:36;;;;;;;19.10;12.30;;;;;;;19.66;91.43;100572.77;218166;1288;140274;-88
2023/09/10 20:52:38;;;;;;;19.50;12.70;;;;;;;19.58;91.30;100572.79;217799;1289;142667;-89
2023/09/10 20:57:39;;;;;;;22.10;12.50;;;;;;;19.53;91.72;100568.21;218385;1288;140409;-88
2023/09/10 21:02:39;;;;;;;17.70;12.20;;;;;;;19.47;91.96;100569.62;217985;1288;141159;-89
2023/09/10 21:07:41;;;;;;;21.00;13.20;;;;;;;19.43;91.70;100565.47;218336;1288;139186;-90
2023/09/10 21:12:41;;;;;;;17.50;12.30;;;;;;;19.38;92.61;100564.33;217792;1288;142181;-90
2023/09/10 21:17:41;;;;;;;19.90;12.60;;;;;;;19.29;92.81;100562.23;218281;1289;139564;-89
2023/09/10 21:22:42;;;;;;;17.00;11.90;;;;;;;19.16;93.52;100559.91;217800;1288;141806;-88
2023/09/10 21:27:43;;;;;;;21.70;13.20;;;;;;;19.13;93.23;100556.98;218748;1288;139307;-89
2023/09/10 21:32:45;;;;;;;18.30;12.80;;;;;;;19.08;94.33;100554.67;217803;1289;141432;-89
2023/09/10 21:37:45;;;;;;;20.50;13.00;;;;;;;18.99;94.50;100556.13;218339;1288;139097;-88
2023/09/10 21:42:45;;;;;;;19.40;13.20;;;;;;;18.95;95.23;100557.60;218209;1288;141462;-88
2023/09/10 21:47:46;;;;;;;18.20;13.60;;;;;;;18.85;95.78;100555.08;218454;1290;139716;-89
2023/09/10 21:52:46;;;;;;;17.50;13.10;;;;;;;18.77;95.66;100553.03;217833;1289;142361;-89
2023/09/10 21:57:47;;;;;;;20.10;13.60;;;;;;;18.70;95.79;100552.19;218710;1288;138138;-89
2023/09/10 22:02:47;;;;;;;19.10;14.50;;;;;;;18.59;95.81;100548.85;217937;1288;141600;-89
2023/09/10 22:07:47;;;;;;;18.60;13.50;;;;;;;18.57;96.18;100547.29;218372;1289;139141;-89
2023/09/10 22:12:48;;;;;;;20.10;13.40;;;;;;;18.53;96.84;100545.23;217818;1288;141908;-89
2023/09/10 22:17:49;;;;;;;19.90;13.30;;;;;;;18.44;97.11;100543.96;218310;1290;139932;-89
2023/09/10 22:22:51;;;;;;;19.80;13.50;;;;;;;18.41;96.37;100542.03;217670;1289;140899;-89